createdAt,value
2023-02-01T00:00:31.338Z,3.12
2023-02-01T00:05:33.805Z,3.23
2023-02-01T00:10:36.118Z,3.24
2023-02-01T00:15:38.479Z,3.24
2023-02-01T00:20:40.815Z,3.21
2023-02-01T00:25:43.189Z,3.18
2023-02-01T00:30:45.561Z,3.25
2023-02-01T00:35:47.835Z,3.21
2023-02-01T00:40:50.172Z,3.29
2023-02-01T00:45:52.594Z,3.13
2023-02-01T00:50:54.903Z,2.95
2023-02-01T00:55:57.252Z,2.68
2023-02-01T01:00:59.783Z,2.56
2023-02-01T01:06:02.261Z,2.45
2023-02-01T01:11:04.813Z,2.33
2023-02-01T01:16:07.187Z,2.33
2023-02-01T01:21:09.729Z,2.35
2023-02-01T01:26:12.173Z,2.33
2023-02-01T01:31:14.761Z,2.38
2023-02-01T01:36:17.217Z,2.47
2023-02-01T01:41:19.527Z,2.55
2023-02-01T01:46:22.008Z,2.58
2023-02-01T01:51:24.408Z,2.50
2023-02-01T01:56:26.710Z,2.48
2023-02-01T02:01:28.980Z,2.46
2023-02-01T02:06:31.386Z,2.40
2023-02-01T02:11:33.716Z,2.31
2023-02-01T02:16:36.147Z,2.26
2023-02-01T02:21:38.477Z,2.32
2023-02-01T02:26:40.923Z,2.30
2023-02-01T02:31:43.483Z,2.39
2023-02-01T02:36:45.917Z,2.36
2023-02-01T02:42:05.988Z,2.28
2023-02-01T02:47:26.772Z,2.36
2023-02-01T02:52:46.793Z,2.38
2023-02-01T02:58:06.937Z,2.33
2023-02-01T03:03:26.692Z,2.38
2023-02-01T03:08:28.981Z,2.40
2023-02-01T03:13:31.347Z,2.51
2023-02-01T03:18:33.774Z,2.58
2023-02-01T03:23:36.058Z,2.55
2023-02-01T03:28:38.391Z,2.63
2023-02-01T03:33:40.907Z,2.59
2023-02-01T03:38:43.391Z,2.65
2023-02-01T03:43:45.741Z,2.64
2023-02-01T03:48:48.155Z,2.65
2023-02-01T03:53:50.700Z,2.71
2023-02-01T03:59:00.362Z,2.71
2023-02-01T04:04:02.683Z,2.68
2023-02-01T04:09:05.081Z,2.70
2023-02-01T04:14:07.433Z,2.65
2023-02-01T04:19:09.755Z,2.72
2023-02-01T04:24:12.217Z,2.67
2023-02-01T04:29:14.609Z,2.69
2023-02-01T04:34:16.923Z,2.68
2023-02-01T04:39:19.296Z,2.63
2023-02-01T04:44:21.655Z,2.59
2023-02-01T04:49:23.949Z,2.59
2023-02-01T04:54:26.288Z,2.66
2023-02-01T04:59:29.860Z,2.70
2023-02-01T05:04:32.258Z,2.78
2023-02-01T05:09:34.931Z,2.76
2023-02-01T05:14:37.240Z,2.75
2023-02-01T05:19:39.651Z,2.74
2023-02-01T05:24:42.018Z,2.65
2023-02-01T05:29:44.322Z,2.69
2023-02-01T05:34:46.845Z,2.63
2023-02-01T05:39:49.425Z,2.71
2023-02-01T05:44:51.841Z,2.71
2023-02-01T05:49:54.202Z,2.75
2023-02-01T05:54:56.488Z,2.80
2023-02-01T06:00:00.436Z,2.80
2023-02-01T06:05:03.074Z,2.76
2023-02-01T06:10:05.653Z,2.80
2023-02-01T06:15:07.999Z,2.77
2023-02-01T06:20:12.051Z,2.77
2023-02-01T06:25:14.550Z,2.81
2023-02-01T06:30:16.978Z,2.84
2023-02-01T06:35:19.440Z,2.84
2023-02-01T06:40:22.173Z,2.90
2023-02-01T06:45:24.755Z,2.91
2023-02-01T06:50:27.094Z,2.92
2023-02-01T06:55:29.525Z,2.94
2023-02-01T07:00:31.930Z,3.01
2023-02-01T07:05:34.597Z,2.98
2023-02-01T07:10:36.952Z,2.97
2023-02-01T07:15:39.235Z,3.06
2023-02-01T07:20:41.795Z,3.12
2023-02-01T07:25:44.231Z,3.10
2023-02-01T07:30:51.700Z,3.14
2023-02-01T07:35:54.154Z,3.19
2023-02-01T07:40:56.620Z,3.24
2023-02-01T07:45:59.097Z,3.29
2023-02-01T07:51:01.561Z,3.28
2023-02-01T07:56:03.843Z,3.33
2023-02-01T08:01:22.024Z,3.37
2023-02-01T08:06:24.593Z,3.46
2023-02-01T08:11:26.991Z,3.56
2023-02-01T08:16:29.437Z,3.67
2023-02-01T08:21:37.364Z,3.71
2023-02-01T08:26:39.869Z,3.74
2023-02-01T08:31:42.852Z,3.78
2023-02-01T08:36:45.326Z,3.85
2023-02-01T08:42:09.358Z,3.96
2023-02-01T08:47:12.298Z,4.09
2023-02-01T08:52:16.348Z,4.26
2023-02-01T08:57:18.751Z,4.33
2023-02-01T09:02:21.164Z,4.42
2023-02-01T09:07:23.668Z,4.46
2023-02-01T09:12:26.068Z,4.54
2023-02-01T09:22:31.777Z,4.66
2023-02-01T09:27:34.092Z,4.74
2023-02-01T09:32:36.612Z,4.95
2023-02-01T09:37:39.505Z,4.95
2023-02-01T09:42:41.927Z,5.07
2023-02-01T09:47:44.354Z,5.17
2023-02-01T09:52:46.807Z,5.30
2023-02-01T09:57:49.108Z,5.14
2023-02-01T10:02:51.533Z,5.17
2023-02-01T10:07:53.884Z,5.12
2023-02-01T10:12:56.448Z,5.13
2023-02-01T10:17:59.118Z,4.95
2023-02-01T10:23:19.431Z,4.94
2023-02-01T10:28:25.044Z,4.92
2023-02-01T10:33:27.446Z,5.03
2023-02-01T10:38:30.013Z,5.02
2023-02-01T10:43:32.564Z,4.85
2023-02-01T10:48:34.856Z,4.84
2023-02-01T10:53:38.235Z,4.94
2023-02-01T10:58:40.713Z,4.88
2023-02-01T11:03:43.426Z,4.96
2023-02-01T11:08:46.096Z,4.92
2023-02-01T11:13:48.414Z,4.95
2023-02-01T11:18:51.049Z,4.97
2023-02-01T11:23:53.478Z,4.84
2023-02-01T11:28:55.798Z,4.68
2023-02-01T11:33:58.185Z,4.59
2023-02-01T11:39:00.495Z,4.57
2023-02-01T11:44:03.069Z,4.50
2023-02-01T11:49:05.678Z,4.46
2023-02-01T11:54:08.129Z,4.56
2023-02-01T11:59:10.696Z,4.45
2023-02-01T12:04:14.061Z,4.59
2023-02-01T12:09:16.405Z,4.64
2023-02-01T12:14:20.247Z,4.68
2023-02-01T12:19:22.690Z,4.60
2023-02-01T12:24:24.978Z,4.56
2023-02-01T12:29:27.453Z,4.47
2023-02-01T12:34:29.989Z,4.33
2023-02-01T12:39:32.370Z,4.08
2023-02-01T12:44:34.687Z,4.17
2023-02-01T12:49:37.013Z,4.18
2023-02-01T12:54:39.748Z,4.10
2023-02-01T12:59:42.707Z,4.12
2023-02-01T13:04:45.106Z,4.29
2023-02-01T13:09:47.508Z,4.41
2023-02-01T13:14:51.375Z,4.42
2023-02-01T13:19:53.724Z,4.41
2023-02-01T13:24:56.159Z,4.47
2023-02-01T13:29:58.472Z,4.37
2023-02-01T13:35:01.006Z,4.36
2023-02-01T13:40:04.100Z,4.34
2023-02-01T13:45:06.492Z,4.20
2023-02-01T13:50:08.965Z,4.17
2023-02-01T13:55:11.667Z,4.27
2023-02-01T14:00:14.260Z,4.09
2023-02-01T14:05:16.563Z,4.11
2023-02-01T14:10:18.915Z,4.03
2023-02-01T14:15:23.116Z,4.05
2023-02-01T14:20:26.900Z,4.06
2023-02-01T14:25:30.493Z,3.99
2023-02-01T14:30:32.917Z,4.03
2023-02-01T14:35:35.433Z,4.00
2023-02-01T14:40:37.855Z,3.96
2023-02-01T14:45:40.964Z,3.90
2023-02-01T14:50:43.660Z,3.96
2023-02-01T14:55:48.499Z,3.93
2023-02-01T15:00:51.819Z,3.92
2023-02-01T15:05:54.360Z,4.01
2023-02-01T15:10:57.082Z,4.03
2023-02-01T15:15:59.441Z,3.97
2023-02-01T15:21:09.375Z,3.98
2023-02-01T15:26:24.330Z,3.98
2023-02-01T15:31:27.121Z,3.89
2023-02-01T15:36:29.855Z,3.77
2023-02-01T15:41:32.252Z,3.61
2023-02-01T15:46:34.819Z,3.52
2023-02-01T15:51:37.289Z,3.60
2023-02-01T15:56:44.901Z,3.54
2023-02-01T16:01:47.325Z,3.49
2023-02-01T16:06:50.162Z,3.52
2023-02-01T16:11:52.455Z,3.43
2023-02-01T16:16:54.806Z,3.42
2023-02-01T16:21:57.185Z,3.41
2023-02-01T16:26:59.573Z,3.40
2023-02-01T16:32:02.098Z,3.33
2023-02-01T16:37:04.429Z,3.30
2023-02-01T16:42:06.827Z,3.41
2023-02-01T16:47:09.406Z,3.39
2023-02-01T16:52:11.750Z,3.44
2023-02-01T16:57:14.574Z,3.42
2023-02-01T17:02:17.250Z,3.44
2023-02-01T17:07:19.952Z,3.47
2023-02-01T17:12:22.473Z,3.49
2023-02-01T17:17:37.728Z,3.53
2023-02-01T17:22:40.762Z,3.55
2023-02-01T17:27:43.200Z,3.61
2023-02-01T17:32:45.854Z,3.60
2023-02-01T17:37:48.269Z,3.66
2023-02-01T17:42:52.438Z,3.65
2023-02-01T17:47:54.964Z,3.74
2023-02-01T17:52:57.318Z,3.72
2023-02-01T17:58:01.019Z,3.67
2023-02-01T18:03:03.807Z,3.73
2023-02-01T18:08:06.191Z,3.74
2023-02-01T18:13:08.678Z,3.71
2023-02-01T18:18:10.990Z,3.76
2023-02-01T18:23:13.399Z,3.71
2023-02-01T18:28:16.412Z,3.77
2023-02-01T18:33:18.881Z,3.75
2023-02-01T18:38:21.203Z,3.72
2023-02-01T18:43:23.477Z,3.75
2023-02-01T18:48:25.990Z,3.75
2023-02-01T18:53:28.485Z,3.77
2023-02-01T18:58:31.883Z,3.77
2023-02-01T19:03:34.246Z,3.79
2023-02-01T19:08:43.938Z,3.82
2023-02-01T19:13:46.253Z,3.75
2023-02-01T19:18:48.626Z,3.76
2023-02-01T19:23:50.982Z,3.88
2023-02-01T19:28:53.395Z,3.82
2023-02-01T19:33:55.851Z,3.86
2023-02-01T19:38:58.227Z,3.80
2023-02-01T19:44:00.664Z,3.85
2023-02-01T19:49:03.091Z,3.79
2023-02-01T19:54:06.402Z,3.76
2023-02-01T19:59:09.046Z,3.78
2023-02-01T20:04:11.785Z,3.82
2023-02-01T20:09:14.223Z,3.86
2023-02-01T20:14:16.634Z,3.82
2023-02-01T20:19:19.743Z,3.83
2023-02-01T20:24:22.168Z,3.80
2023-02-01T20:29:25.843Z,3.83
2023-02-01T20:34:28.246Z,3.87
2023-02-01T20:39:30.612Z,3.89
2023-02-01T20:44:32.968Z,3.84
2023-02-01T20:49:35.854Z,3.85
2023-02-01T20:54:38.513Z,3.85
2023-02-01T20:59:40.946Z,3.80
2023-02-01T21:04:43.341Z,3.86
2023-02-01T21:09:45.883Z,3.79
2023-02-01T21:14:48.529Z,3.77
2023-02-01T21:19:51.040Z,3.70
2023-02-01T21:24:53.533Z,3.65
2023-02-01T21:29:56.036Z,3.64
2023-02-01T21:34:59.285Z,3.62
2023-02-01T21:40:01.921Z,3.57
2023-02-01T21:45:04.397Z,3.64
2023-02-01T21:50:07.190Z,3.63
2023-02-01T21:55:10.338Z,3.62
2023-02-01T22:00:13.507Z,3.56
2023-02-01T22:05:17.224Z,3.46
2023-02-01T22:10:19.628Z,3.41
2023-02-01T22:15:22.277Z,3.48
2023-02-01T22:20:24.825Z,3.60
2023-02-01T22:25:28.600Z,3.59
2023-02-01T22:30:31.418Z,3.69
2023-02-01T22:35:34.076Z,3.65
2023-02-01T22:40:36.476Z,3.64
2023-02-01T22:45:38.762Z,3.68
2023-02-01T22:50:41.078Z,3.61
2023-02-01T22:55:45.486Z,3.58
2023-02-01T23:00:47.878Z,3.56
2023-02-01T23:05:50.344Z,3.56
2023-02-01T23:10:52.783Z,3.56
2023-02-01T23:15:55.204Z,3.58
2023-02-01T23:20:57.783Z,3.57
2023-02-01T23:26:00.471Z,3.60
2023-02-01T23:31:04.614Z,3.57
2023-02-01T23:36:07.570Z,3.54
2023-02-01T23:41:09.945Z,3.52
2023-02-01T23:46:13.484Z,3.46
2023-02-01T23:51:16.148Z,3.47
2023-02-01T23:56:18.747Z,3.51
